sensor_id;sensor_type;location;lat;lon;timestamp;P1;durP1;ratioP1;P2;durP2;ratioP2
48207;SDS011;33997;53.278;9.708;2022-09-30T00:01:48;25.85;;;13.43;;
48207;SDS011;33997;53.278;9.708;2022-09-30T00:04:20;24.90;;;12.88;;
48207;SDS011;33997;53.278;9.708;2022-09-30T00:06:47;31.95;;;14.70;;
48207;SDS011;33997;53.278;9.708;2022-09-30T00:09:14;28.27;;;14.18;;
48207;SDS011;33997;53.278;9.708;2022-09-30T00:11:40;29.40;;;14.95;;
48207;SDS011;33997;53.278;9.708;2022-09-30T00:14:07;26.58;;;14.55;;
48207;SDS011;33997;53.278;9.708;2022-09-30T00:16:39;28.65;;;15.70;;
48207;SDS011;33997;53.278;9.708;2022-09-30T00:19:04;28.83;;;14.35;;
48207;SDS011;33997;53.278;9.708;2022-09-30T00:21:30;29.23;;;15.30;;
48207;SDS011;33997;53.278;9.708;2022-09-30T00:23:57;31.30;;;15.73;;
48207;SDS011;33997;53.278;9.708;2022-09-30T00:26:24;32.38;;;15.07;;
48207;SDS011;33997;53.278;9.708;2022-09-30T00:28:50;35.08;;;16.35;;
48207;SDS011;33997;53.278;9.708;2022-09-30T00:31:18;28.38;;;16.73;;
48207;SDS011;33997;53.278;9.708;2022-09-30T00:33:45;27.27;;;14.88;;
48207;SDS011;33997;53.278;9.708;2022-09-30T00:36:30;28.33;;;14.63;;
48207;SDS011;33997;53.278;9.708;2022-09-30T00:39:17;30.35;;;14.60;;
48207;SDS011;33997;53.278;9.708;2022-09-30T00:41:46;30.90;;;14.60;;
48207;SDS011;33997;53.278;9.708;2022-09-30T00:47:21;28.90;;;14.43;;
48207;SDS011;33997;53.278;9.708;2022-09-30T00:50:14;29.63;;;14.40;;
48207;SDS011;33997;53.278;9.708;2022-09-30T00:52:45;31.30;;;15.15;;
48207;SDS011;33997;53.278;9.708;2022-09-30T00:58:02;37.10;;;16.23;;
48207;SDS011;33997;53.278;9.708;2022-09-30T01:00:29;33.88;;;15.70;;
48207;SDS011;33997;53.278;9.708;2022-09-30T01:02:55;35.58;;;16.92;;
48207;SDS011;33997;53.278;9.708;2022-09-30T01:05:21;37.75;;;16.60;;
48207;SDS011;33997;53.278;9.708;2022-09-30T01:07:48;34.15;;;16.67;;
48207;SDS011;33997;53.278;9.708;2022-09-30T01:10:14;33.88;;;17.58;;
48207;SDS011;33997;53.278;9.708;2022-09-30T01:12:39;33.17;;;15.95;;
48207;SDS011;33997;53.278;9.708;2022-09-30T01:15:05;31.80;;;16.55;;
48207;SDS011;33997;53.278;9.708;2022-09-30T01:23:10;33.25;;;15.68;;
48207;SDS011;33997;53.278;9.708;2022-09-30T01:26:10;33.65;;;16.02;;
48207;SDS011;33997;53.278;9.708;2022-09-30T01:32:04;38.70;;;14.40;;
48207;SDS011;33997;53.278;9.708;2022-09-30T01:37:32;30.92;;;15.13;;
48207;SDS011;33997;53.278;9.708;2022-09-30T01:45:30;39.00;;;18.27;;
48207;SDS011;33997;53.278;9.708;2022-09-30T01:48:08;33.03;;;16.38;;
48207;SDS011;33997;53.278;9.708;2022-09-30T01:51:04;36.72;;;17.27;;
48207;SDS011;33997;53.278;9.708;2022-09-30T01:56:31;33.47;;;17.35;;
48207;SDS011;33997;53.278;9.708;2022-09-30T01:59:05;38.13;;;16.92;;
48207;SDS011;33997;53.278;9.708;2022-09-30T02:01:47;35.55;;;16.77;;
48207;SDS011;33997;53.278;9.708;2022-09-30T02:04:54;39.35;;;17.08;;
48207;SDS011;33997;53.278;9.708;2022-09-30T02:07:35;38.50;;;16.80;;
48207;SDS011;33997;53.278;9.708;2022-09-30T02:12:42;36.17;;;17.10;;
48207;SDS011;33997;53.278;9.708;2022-09-30T02:15:15;40.35;;;18.83;;
48207;SDS011;33997;53.278;9.708;2022-09-30T02:20:49;38.25;;;18.60;;
48207;SDS011;33997;53.278;9.708;2022-09-30T02:23:22;39.58;;;17.73;;
48207;SDS011;33997;53.278;9.708;2022-09-30T02:25:57;38.35;;;18.10;;
48207;SDS011;33997;53.278;9.708;2022-09-30T02:28:31;42.72;;;18.65;;
48207;SDS011;33997;53.278;9.708;2022-09-30T02:31:01;43.78;;;17.92;;
48207;SDS011;33997;53.278;9.708;2022-09-30T02:33:33;38.97;;;18.08;;
48207;SDS011;33997;53.278;9.708;2022-09-30T02:36:06;40.92;;;17.88;;
48207;SDS011;33997;53.278;9.708;2022-09-30T02:38:37;43.95;;;18.40;;
48207;SDS011;33997;53.278;9.708;2022-09-30T02:41:14;45.30;;;19.05;;
48207;SDS011;33997;53.278;9.708;2022-09-30T02:43:47;41.28;;;18.45;;
48207;SDS011;33997;53.278;9.708;2022-09-30T02:54:16;44.78;;;19.60;;
48207;SDS011;33997;53.278;9.708;2022-09-30T02:56:52;41.92;;;19.88;;
48207;SDS011;33997;53.278;9.708;2022-09-30T02:59:27;44.08;;;19.40;;
48207;SDS011;33997;53.278;9.708;2022-09-30T03:01:52;44.63;;;19.95;;
48207;SDS011;33997;53.278;9.708;2022-09-30T03:04:19;51.08;;;20.95;;
48207;SDS011;33997;53.278;9.708;2022-09-30T03:06:48;46.65;;;20.88;;
48207;SDS011;33997;53.278;9.708;2022-09-30T03:09:14;41.72;;;20.00;;
48207;SDS011;33997;53.278;9.708;2022-09-30T03:11:39;50.05;;;20.83;;
48207;SDS011;33997;53.278;9.708;2022-09-30T03:14:12;52.00;;;22.65;;
48207;SDS011;33997;53.278;9.708;2022-09-30T03:17:09;54.33;;;21.50;;
48207;SDS011;33997;53.278;9.708;2022-09-30T03:19:58;50.63;;;21.48;;
48207;SDS011;33997;53.278;9.708;2022-09-30T03:22:48;48.35;;;20.98;;
48207;SDS011;33997;53.278;9.708;2022-09-30T03:25:42;48.83;;;20.40;;
48207;SDS011;33997;53.278;9.708;2022-09-30T03:28:24;56.25;;;22.02;;
48207;SDS011;33997;53.278;9.708;2022-09-30T03:33:38;55.35;;;23.55;;
48207;SDS011;33997;53.278;9.708;2022-09-30T03:36:24;54.90;;;22.92;;
48207;SDS011;33997;53.278;9.708;2022-09-30T03:42:17;52.45;;;22.45;;
48207;SDS011;33997;53.278;9.708;2022-09-30T03:47:31;52.55;;;22.08;;
48207;SDS011;33997;53.278;9.708;2022-09-30T03:50:01;53.70;;;23.45;;
48207;SDS011;33997;53.278;9.708;2022-09-30T03:52:30;64.30;;;24.02;;
48207;SDS011;33997;53.278;9.708;2022-09-30T03:54:58;68.03;;;24.35;;
48207;SDS011;33997;53.278;9.708;2022-09-30T03:57:25;59.92;;;23.48;;
48207;SDS011;33997;53.278;9.708;2022-09-30T03:59:54;66.65;;;23.95;;
48207;SDS011;33997;53.278;9.708;2022-09-30T04:02:20;60.65;;;24.02;;
48207;SDS011;33997;53.278;9.708;2022-09-30T04:04:46;62.25;;;23.75;;
48207;SDS011;33997;53.278;9.708;2022-09-30T04:07:11;62.13;;;24.92;;
48207;SDS011;33997;53.278;9.708;2022-09-30T04:09:37;63.38;;;25.48;;
48207;SDS011;33997;53.278;9.708;2022-09-30T04:12:03;68.70;;;26.37;;
48207;SDS011;33997;53.278;9.708;2022-09-30T04:14:29;62.45;;;25.48;;
48207;SDS011;33997;53.278;9.708;2022-09-30T04:16:55;68.88;;;27.17;;
48207;SDS011;33997;53.278;9.708;2022-09-30T04:19:21;64.18;;;26.15;;
48207;SDS011;33997;53.278;9.708;2022-09-30T04:21:46;71.90;;;26.52;;
48207;SDS011;33997;53.278;9.708;2022-09-30T04:24:12;70.82;;;26.38;;
48207;SDS011;33997;53.278;9.708;2022-09-30T04:26:37;71.22;;;27.27;;
48207;SDS011;33997;53.278;9.708;2022-09-30T04:29:02;65.25;;;24.85;;
48207;SDS011;33997;53.278;9.708;2022-09-30T04:31:28;65.10;;;26.05;;
48207;SDS011;33997;53.278;9.708;2022-09-30T04:33:55;62.03;;;25.42;;
48207;SDS011;33997;53.278;9.708;2022-09-30T04:36:21;67.93;;;24.15;;
48207;SDS011;33997;53.278;9.708;2022-09-30T04:38:47;65.97;;;25.42;;
48207;SDS011;33997;53.278;9.708;2022-09-30T04:41:13;61.53;;;24.80;;
48207;SDS011;33997;53.278;9.708;2022-09-30T04:43:43;72.43;;;24.43;;
48207;SDS011;33997;53.278;9.708;2022-09-30T04:46:10;62.00;;;25.33;;
48207;SDS011;33997;53.278;9.708;2022-09-30T04:48:36;67.88;;;24.73;;
48207;SDS011;33997;53.278;9.708;2022-09-30T04:51:02;60.28;;;24.23;;
48207;SDS011;33997;53.278;9.708;2022-09-30T04:53:28;65.28;;;24.65;;
48207;SDS011;33997;53.278;9.708;2022-09-30T04:55:57;65.78;;;24.20;;
48207;SDS011;33997;53.278;9.708;2022-09-30T04:58:24;65.30;;;25.20;;
48207;SDS011;33997;53.278;9.708;2022-09-30T05:00:50;67.45;;;23.88;;
48207;SDS011;33997;53.278;9.708;2022-09-30T05:03:16;71.75;;;26.38;;
48207;SDS011;33997;53.278;9.708;2022-09-30T05:05:42;64.28;;;24.65;;
48207;SDS011;33997;53.278;9.708;2022-09-30T05:08:08;70.80;;;25.45;;
48207;SDS011;33997;53.278;9.708;2022-09-30T05:10:33;63.22;;;24.60;;
48207;SDS011;33997;53.278;9.708;2022-09-30T05:12:59;66.53;;;24.13;;
48207;SDS011;33997;53.278;9.708;2022-09-30T05:15:24;73.88;;;25.77;;
48207;SDS011;33997;53.278;9.708;2022-09-30T05:17:51;74.75;;;25.38;;
48207;SDS011;33997;53.278;9.708;2022-09-30T05:20:17;62.92;;;24.55;;
48207;SDS011;33997;53.278;9.708;2022-09-30T05:22:43;67.30;;;24.85;;
48207;SDS011;33997;53.278;9.708;2022-09-30T05:25:09;66.32;;;26.17;;
48207;SDS011;33997;53.278;9.708;2022-09-30T05:27:34;67.38;;;25.60;;
48207;SDS011;33997;53.278;9.708;2022-09-30T05:30:00;68.45;;;26.17;;
48207;SDS011;33997;53.278;9.708;2022-09-30T05:32:26;70.82;;;25.42;;
48207;SDS011;33997;53.278;9.708;2022-09-30T05:34:51;74.93;;;24.80;;
48207;SDS011;33997;53.278;9.708;2022-09-30T05:37:18;63.75;;;23.75;;
48207;SDS011;33997;53.278;9.708;2022-09-30T05:39:43;77.03;;;24.80;;
48207;SDS011;33997;53.278;9.708;2022-09-30T05:42:09;75.70;;;25.13;;
48207;SDS011;33997;53.278;9.708;2022-09-30T05:44:34;65.68;;;24.73;;
48207;SDS011;33997;53.278;9.708;2022-09-30T05:47:00;76.47;;;24.80;;
48207;SDS011;33997;53.278;9.708;2022-09-30T05:49:25;72.30;;;25.90;;
48207;SDS011;33997;53.278;9.708;2022-09-30T05:51:51;70.65;;;25.15;;
48207;SDS011;33997;53.278;9.708;2022-09-30T05:54:17;76.25;;;25.10;;
48207;SDS011;33997;53.278;9.708;2022-09-30T05:56:42;75.40;;;26.63;;
48207;SDS011;33997;53.278;9.708;2022-09-30T05:59:08;81.88;;;26.05;;
48207;SDS011;33997;53.278;9.708;2022-09-30T06:01:34;80.93;;;28.30;;
48207;SDS011;33997;53.278;9.708;2022-09-30T06:04:00;89.43;;;29.15;;
48207;SDS011;33997;53.278;9.708;2022-09-30T06:06:25;82.90;;;28.95;;
48207;SDS011;33997;53.278;9.708;2022-09-30T06:08:51;82.55;;;27.75;;
48207;SDS011;33997;53.278;9.708;2022-09-30T06:11:18;79.03;;;29.35;;
48207;SDS011;33997;53.278;9.708;2022-09-30T06:13:45;79.53;;;29.50;;
48207;SDS011;33997;53.278;9.708;2022-09-30T06:16:11;78.65;;;29.75;;
48207;SDS011;33997;53.278;9.708;2022-09-30T06:18:37;91.75;;;29.52;;
48207;SDS011;33997;53.278;9.708;2022-09-30T06:21:05;95.35;;;30.95;;
48207;SDS011;33997;53.278;9.708;2022-09-30T06:23:32;91.28;;;30.20;;
48207;SDS011;33997;53.278;9.708;2022-09-30T06:25:59;91.30;;;30.67;;
48207;SDS011;33997;53.278;9.708;2022-09-30T06:28:25;97.63;;;32.80;;
48207;SDS011;33997;53.278;9.708;2022-09-30T06:30:51;96.07;;;33.85;;
48207;SDS011;33997;53.278;9.708;2022-09-30T06:33:17;93.80;;;31.00;;
48207;SDS011;33997;53.278;9.708;2022-09-30T06:35:43;100.28;;;31.92;;
48207;SDS011;33997;53.278;9.708;2022-09-30T06:38:11;100.45;;;33.25;;
48207;SDS011;33997;53.278;9.708;2022-09-30T06:40:39;105.20;;;33.85;;
48207;SDS011;33997;53.278;9.708;2022-09-30T06:43:05;106.50;;;33.83;;
48207;SDS011;33997;53.278;9.708;2022-09-30T06:45:31;103.88;;;32.72;;
48207;SDS011;33997;53.278;9.708;2022-09-30T06:47:59;100.10;;;33.42;;
48207;SDS011;33997;53.278;9.708;2022-09-30T06:50:26;103.07;;;33.28;;
48207;SDS011;33997;53.278;9.708;2022-09-30T06:52:55;103.93;;;35.10;;
48207;SDS011;33997;53.278;9.708;2022-09-30T06:55:23;102.45;;;34.25;;
48207;SDS011;33997;53.278;9.708;2022-09-30T06:57:50;98.72;;;32.92;;
48207;SDS011;33997;53.278;9.708;2022-09-30T07:00:16;109.97;;;34.15;;
48207;SDS011;33997;53.278;9.708;2022-09-30T07:02:42;110.68;;;35.92;;
48207;SDS011;33997;53.278;9.708;2022-09-30T07:05:08;104.63;;;34.30;;
48207;SDS011;33997;53.278;9.708;2022-09-30T07:07:33;117.10;;;35.03;;
48207;SDS011;33997;53.278;9.708;2022-09-30T07:10:00;106.28;;;34.63;;
48207;SDS011;33997;53.278;9.708;2022-09-30T07:12:27;110.95;;;35.47;;
48207;SDS011;33997;53.278;9.708;2022-09-30T07:14:52;121.03;;;35.65;;
48207;SDS011;33997;53.278;9.708;2022-09-30T07:17:20;102.60;;;34.95;;
48207;SDS011;33997;53.278;9.708;2022-09-30T07:19:45;125.90;;;36.38;;
48207;SDS011;33997;53.278;9.708;2022-09-30T07:22:11;120.18;;;35.72;;
48207;SDS011;33997;53.278;9.708;2022-09-30T07:24:52;111.75;;;34.40;;
48207;SDS011;33997;53.278;9.708;2022-09-30T07:27:19;110.03;;;35.42;;
48207;SDS011;33997;53.278;9.708;2022-09-30T07:29:45;109.32;;;34.60;;
48207;SDS011;33997;53.278;9.708;2022-09-30T07:32:11;103.82;;;33.78;;
48207;SDS011;33997;53.278;9.708;2022-09-30T07:34:37;120.57;;;38.15;;
48207;SDS011;33997;53.278;9.708;2022-09-30T07:37:07;113.88;;;36.75;;
48207;SDS011;33997;53.278;9.708;2022-09-30T07:39:33;115.72;;;37.53;;
48207;SDS011;33997;53.278;9.708;2022-09-30T07:41:59;116.13;;;37.47;;
48207;SDS011;33997;53.278;9.708;2022-09-30T07:44:26;116.65;;;37.47;;
48207;SDS011;33997;53.278;9.708;2022-09-30T07:46:52;116.22;;;38.80;;
48207;SDS011;33997;53.278;9.708;2022-09-30T07:49:18;119.53;;;39.28;;
48207;SDS011;33997;53.278;9.708;2022-09-30T07:51:49;117.60;;;38.35;;
48207;SDS011;33997;53.278;9.708;2022-09-30T07:54:18;115.85;;;38.85;;
48207;SDS011;33997;53.278;9.708;2022-09-30T07:56:46;115.13;;;38.30;;
48207;SDS011;33997;53.278;9.708;2022-09-30T07:59:12;118.88;;;38.00;;
48207;SDS011;33997;53.278;9.708;2022-09-30T08:01:38;108.28;;;37.47;;
48207;SDS011;33997;53.278;9.708;2022-09-30T08:04:05;111.65;;;37.47;;
48207;SDS011;33997;53.278;9.708;2022-09-30T08:06:35;116.68;;;38.63;;
48207;SDS011;33997;53.278;9.708;2022-09-30T08:09:03;121.95;;;38.80;;
48207;SDS011;33997;53.278;9.708;2022-09-30T08:11:31;114.22;;;37.10;;
48207;SDS011;33997;53.278;9.708;2022-09-30T08:13:58;113.43;;;37.72;;
48207;SDS011;33997;53.278;9.708;2022-09-30T08:16:23;105.03;;;37.60;;
48207;SDS011;33997;53.278;9.708;2022-09-30T08:18:53;104.28;;;35.53;;
48207;SDS011;33997;53.278;9.708;2022-09-30T08:21:20;104.47;;;35.08;;
48207;SDS011;33997;53.278;9.708;2022-09-30T08:23:46;93.65;;;34.97;;
48207;SDS011;33997;53.278;9.708;2022-09-30T08:26:11;85.03;;;33.47;;
48207;SDS011;33997;53.278;9.708;2022-09-30T08:28:37;77.85;;;30.98;;
48207;SDS011;33997;53.278;9.708;2022-09-30T08:31:05;74.55;;;30.38;;
48207;SDS011;33997;53.278;9.708;2022-09-30T08:33:32;69.13;;;28.73;;
48207;SDS011;33997;53.278;9.708;2022-09-30T08:36:04;59.53;;;25.08;;
48207;SDS011;33997;53.278;9.708;2022-09-30T08:38:34;56.78;;;24.17;;
48207;SDS011;33997;53.278;9.708;2022-09-30T08:41:12;49.53;;;23.45;;
48207;SDS011;33997;53.278;9.708;2022-09-30T08:43:53;50.85;;;24.23;;
48207;SDS011;33997;53.278;9.708;2022-09-30T08:46:43;39.22;;;20.17;;
48207;SDS011;33997;53.278;9.708;2022-09-30T08:51:53;35.67;;;19.50;;
48207;SDS011;33997;53.278;9.708;2022-09-30T08:54:23;27.00;;;15.18;;
48207;SDS011;33997;53.278;9.708;2022-09-30T08:56:54;22.08;;;15.68;;
48207;SDS011;33997;53.278;9.708;2022-09-30T08:59:24;24.52;;;14.13;;
48207;SDS011;33997;53.278;9.708;2022-09-30T09:02:00;19.23;;;14.00;;
48207;SDS011;33997;53.278;9.708;2022-09-30T09:04:46;23.40;;;13.75;;
48207;SDS011;33997;53.278;9.708;2022-09-30T09:07:29;15.50;;;12.00;;
48207;SDS011;33997;53.278;9.708;2022-09-30T09:12:55;11.65;;;8.38;;
48207;SDS011;33997;53.278;9.708;2022-09-30T09:23:45;12.32;;;7.53;;
48207;SDS011;33997;53.278;9.708;2022-09-30T09:26:13;9.55;;;7.07;;
48207;SDS011;33997;53.278;9.708;2022-09-30T09:28:52;9.40;;;7.10;;
48207;SDS011;33997;53.278;9.708;2022-09-30T09:31:27;8.77;;;6.53;;
48207;SDS011;33997;53.278;9.708;2022-09-30T09:33:54;10.65;;;8.40;;
48207;SDS011;33997;53.278;9.708;2022-09-30T09:36:30;10.30;;;7.32;;
48207;SDS011;33997;53.278;9.708;2022-09-30T09:39:18;10.75;;;7.53;;
48207;SDS011;33997;53.278;9.708;2022-09-30T09:41:51;10.88;;;8.00;;
48207;SDS011;33997;53.278;9.708;2022-09-30T09:44:29;11.40;;;7.55;;
48207;SDS011;33997;53.278;9.708;2022-09-30T09:47:12;11.88;;;7.30;;
48207;SDS011;33997;53.278;9.708;2022-09-30T09:54:41;11.13;;;6.88;;
48207;SDS011;33997;53.278;9.708;2022-09-30T09:57:08;7.55;;;6.35;;
48207;SDS011;33997;53.278;9.708;2022-09-30T09:59:54;8.95;;;5.55;;
48207;SDS011;33997;53.278;9.708;2022-09-30T10:03:03;7.88;;;5.68;;
48207;SDS011;33997;53.278;9.708;2022-09-30T10:05:42;6.97;;;4.72;;
48207;SDS011;33997;53.278;9.708;2022-09-30T10:08:13;9.00;;;4.97;;
48207;SDS011;33997;53.278;9.708;2022-09-30T10:10:42;8.70;;;5.00;;
48207;SDS011;33997;53.278;9.708;2022-09-30T10:13:23;7.53;;;4.72;;
48207;SDS011;33997;53.278;9.708;2022-09-30T10:15:56;7.70;;;3.90;;
48207;SDS011;33997;53.278;9.708;2022-09-30T10:18:26;10.10;;;4.50;;
48207;SDS011;33997;53.278;9.708;2022-09-30T10:20:58;6.75;;;4.28;;
48207;SDS011;33997;53.278;9.708;2022-09-30T10:25:57;9.25;;;4.95;;
48207;SDS011;33997;53.278;9.708;2022-09-30T10:28:28;6.93;;;4.47;;
48207;SDS011;33997;53.278;9.708;2022-09-30T10:36:18;6.32;;;4.63;;
48207;SDS011;33997;53.278;9.708;2022-09-30T10:38:51;6.03;;;4.60;;
48207;SDS011;33997;53.278;9.708;2022-09-30T10:41:30;8.70;;;5.35;;
48207;SDS011;33997;53.278;9.708;2022-09-30T10:43:58;8.85;;;5.90;;
48207;SDS011;33997;53.278;9.708;2022-09-30T10:46:30;7.50;;;5.65;;
48207;SDS011;33997;53.278;9.708;2022-09-30T10:49:06;8.07;;;6.03;;
48207;SDS011;33997;53.278;9.708;2022-09-30T10:51:44;12.50;;;5.93;;
48207;SDS011;33997;53.278;9.708;2022-09-30T10:54:14;9.20;;;5.65;;
48207;SDS011;33997;53.278;9.708;2022-09-30T10:57:04;8.05;;;5.85;;
48207;SDS011;33997;53.278;9.708;2022-09-30T10:59:38;7.68;;;5.93;;
48207;SDS011;33997;53.278;9.708;2022-09-30T11:10:23;9.82;;;6.22;;
48207;SDS011;33997;53.278;9.708;2022-09-30T11:13:06;11.20;;;6.35;;
48207;SDS011;33997;53.278;9.708;2022-09-30T11:16:02;8.35;;;5.60;;
48207;SDS011;33997;53.278;9.708;2022-09-30T11:18:59;8.15;;;5.18;;
48207;SDS011;33997;53.278;9.708;2022-09-30T11:32:11;7.38;;;5.45;;
48207;SDS011;33997;53.278;9.708;2022-09-30T11:51:28;8.20;;;4.72;;
48207;SDS011;33997;53.278;9.708;2022-09-30T11:54:03;6.47;;;4.80;;
48207;SDS011;33997;53.278;9.708;2022-09-30T12:01:48;6.75;;;3.53;;
48207;SDS011;33997;53.278;9.708;2022-09-30T12:04:22;6.18;;;3.90;;
48207;SDS011;33997;53.278;9.708;2022-09-30T12:06:55;6.40;;;4.10;;
48207;SDS011;33997;53.278;9.708;2022-09-30T12:09:32;9.65;;;4.82;;
48207;SDS011;33997;53.278;9.708;2022-09-30T12:12:12;7.28;;;4.10;;
48207;SDS011;33997;53.278;9.708;2022-09-30T12:17:25;5.68;;;3.28;;
48207;SDS011;33997;53.278;9.708;2022-09-30T12:20:06;5.78;;;3.85;;
48207;SDS011;33997;53.278;9.708;2022-09-30T12:22:43;6.53;;;4.00;;
48207;SDS011;33997;53.278;9.708;2022-09-30T12:25:12;6.47;;;3.95;;
48207;SDS011;33997;53.278;9.708;2022-09-30T12:27:46;8.38;;;3.90;;
48207;SDS011;33997;53.278;9.708;2022-09-30T12:30:54;6.88;;;3.95;;
48207;SDS011;33997;53.278;9.708;2022-09-30T12:33:42;6.45;;;4.00;;
48207;SDS011;33997;53.278;9.708;2022-09-30T12:36:35;8.38;;;4.53;;
48207;SDS011;33997;53.278;9.708;2022-09-30T12:39:39;7.63;;;4.10;;
48207;SDS011;33997;53.278;9.708;2022-09-30T12:45:27;7.30;;;4.47;;
48207;SDS011;33997;53.278;9.708;2022-09-30T12:48:14;7.00;;;4.35;;
48207;SDS011;33997;53.278;9.708;2022-09-30T12:50:46;6.93;;;4.72;;
48207;SDS011;33997;53.278;9.708;2022-09-30T12:53:17;6.68;;;4.13;;
48207;SDS011;33997;53.278;9.708;2022-09-30T12:55:48;6.20;;;3.95;;
48207;SDS011;33997;53.278;9.708;2022-09-30T12:58:17;9.23;;;4.05;;
48207;SDS011;33997;53.278;9.708;2022-09-30T13:00:57;6.68;;;3.90;;
48207;SDS011;33997;53.278;9.708;2022-09-30T13:03:42;8.60;;;4.20;;
48207;SDS011;33997;53.278;9.708;2022-09-30T13:09:21;8.15;;;4.10;;
48207;SDS011;33997;53.278;9.708;2022-09-30T13:32:39;8.10;;;6.18;;
48207;SDS011;33997;53.278;9.708;2022-09-30T13:40:53;6.75;;;3.92;;
48207;SDS011;33997;53.278;9.708;2022-09-30T13:46:27;7.78;;;4.90;;
48207;SDS011;33997;53.278;9.708;2022-09-30T13:49:00;9.50;;;5.15;;
48207;SDS011;33997;53.278;9.708;2022-09-30T13:51:43;10.48;;;6.45;;
48207;SDS011;33997;53.278;9.708;2022-09-30T13:54:16;8.15;;;5.55;;
48207;SDS011;33997;53.278;9.708;2022-09-30T13:56:51;8.25;;;5.70;;
48207;SDS011;33997;53.278;9.708;2022-09-30T14:02:20;7.88;;;4.55;;
48207;SDS011;33997;53.278;9.708;2022-09-30T14:05:19;8.38;;;4.95;;
48207;SDS011;33997;53.278;9.708;2022-09-30T14:11:10;10.43;;;6.40;;
48207;SDS011;33997;53.278;9.708;2022-09-30T14:20:02;8.50;;;4.60;;
48207;SDS011;33997;53.278;9.708;2022-09-30T14:22:52;7.18;;;4.80;;
48207;SDS011;33997;53.278;9.708;2022-09-30T14:25:18;7.97;;;4.60;;
48207;SDS011;33997;53.278;9.708;2022-09-30T14:27:51;7.28;;;4.13;;
48207;SDS011;33997;53.278;9.708;2022-09-30T14:35:34;6.55;;;3.88;;
48207;SDS011;33997;53.278;9.708;2022-09-30T14:38:08;6.53;;;4.40;;
48207;SDS011;33997;53.278;9.708;2022-09-30T14:40:52;6.28;;;3.58;;
48207;SDS011;33997;53.278;9.708;2022-09-30T14:43:20;7.03;;;3.85;;
48207;SDS011;33997;53.278;9.708;2022-09-30T14:45:55;5.97;;;4.10;;
48207;SDS011;33997;53.278;9.708;2022-09-30T14:48:27;8.07;;;5.00;;
48207;SDS011;33997;53.278;9.708;2022-09-30T14:51:00;9.10;;;4.65;;
48207;SDS011;33997;53.278;9.708;2022-09-30T14:53:30;10.77;;;6.57;;
48207;SDS011;33997;53.278;9.708;2022-09-30T14:55:57;7.80;;;5.28;;
48207;SDS011;33997;53.278;9.708;2022-09-30T14:58:27;8.35;;;4.35;;
48207;SDS011;33997;53.278;9.708;2022-09-30T15:01:02;14.45;;;9.57;;
48207;SDS011;33997;53.278;9.708;2022-09-30T15:03:36;6.10;;;3.70;;
48207;SDS011;33997;53.278;9.708;2022-09-30T15:06:04;6.40;;;3.78;;
48207;SDS011;33997;53.278;9.708;2022-09-30T15:08:40;5.75;;;3.53;;
48207;SDS011;33997;53.278;9.708;2022-09-30T15:11:05;7.13;;;4.22;;
48207;SDS011;33997;53.278;9.708;2022-09-30T15:13:31;8.80;;;5.43;;
48207;SDS011;33997;53.278;9.708;2022-09-30T15:15:58;9.43;;;5.05;;
48207;SDS011;33997;53.278;9.708;2022-09-30T15:18:30;7.47;;;5.32;;
48207;SDS011;33997;53.278;9.708;2022-09-30T15:21:06;5.50;;;4.20;;
48207;SDS011;33997;53.278;9.708;2022-09-30T15:23:39;8.10;;;4.05;;
48207;SDS011;33997;53.278;9.708;2022-09-30T15:26:07;5.45;;;3.95;;
48207;SDS011;33997;53.278;9.708;2022-09-30T15:28:35;8.10;;;4.53;;
48207;SDS011;33997;53.278;9.708;2022-09-30T15:31:01;8.07;;;3.90;;
48207;SDS011;33997;53.278;9.708;2022-09-30T15:33:29;9.23;;;4.97;;
48207;SDS011;33997;53.278;9.708;2022-09-30T15:36:03;7.50;;;3.88;;
48207;SDS011;33997;53.278;9.708;2022-09-30T15:38:32;10.38;;;5.13;;
48207;SDS011;33997;53.278;9.708;2022-09-30T15:41:01;8.32;;;5.85;;
48207;SDS011;33997;53.278;9.708;2022-09-30T15:43:37;8.75;;;5.45;;
48207;SDS011;33997;53.278;9.708;2022-09-30T15:46:23;8.70;;;4.05;;
48207;SDS011;33997;53.278;9.708;2022-09-30T15:49:00;16.25;;;12.40;;
48207;SDS011;33997;53.278;9.708;2022-09-30T15:51:37;11.32;;;7.10;;
48207;SDS011;33997;53.278;9.708;2022-09-30T15:56:38;9.27;;;5.75;;
48207;SDS011;33997;53.278;9.708;2022-09-30T15:59:07;16.02;;;9.77;;
48207;SDS011;33997;53.278;9.708;2022-09-30T16:01:38;9.32;;;6.00;;
48207;SDS011;33997;53.278;9.708;2022-09-30T16:06:52;6.07;;;3.83;;
48207;SDS011;33997;53.278;9.708;2022-09-30T16:09:30;7.43;;;3.70;;
48207;SDS011;33997;53.278;9.708;2022-09-30T16:12:00;9.80;;;5.90;;
48207;SDS011;33997;53.278;9.708;2022-09-30T16:17:24;7.18;;;4.05;;
48207;SDS011;33997;53.278;9.708;2022-09-30T16:19:58;6.63;;;3.33;;
48207;SDS011;33997;53.278;9.708;2022-09-30T16:27:33;7.90;;;4.65;;
48207;SDS011;33997;53.278;9.708;2022-09-30T16:29:59;9.98;;;6.05;;
48207;SDS011;33997;53.278;9.708;2022-09-30T16:32:26;14.20;;;8.93;;
48207;SDS011;33997;53.278;9.708;2022-09-30T16:34:53;12.50;;;8.93;;
48207;SDS011;33997;53.278;9.708;2022-09-30T16:37:19;14.25;;;9.73;;
48207;SDS011;33997;53.278;9.708;2022-09-30T16:39:45;13.80;;;7.82;;
48207;SDS011;33997;53.278;9.708;2022-09-30T16:42:12;9.23;;;6.15;;
48207;SDS011;33997;53.278;9.708;2022-09-30T16:44:38;8.75;;;7.05;;
48207;SDS011;33997;53.278;9.708;2022-09-30T16:47:06;12.98;;;7.32;;
48207;SDS011;33997;53.278;9.708;2022-09-30T16:49:31;11.10;;;7.28;;
48207;SDS011;33997;53.278;9.708;2022-09-30T16:51:58;12.75;;;6.38;;
48207;SDS011;33997;53.278;9.708;2022-09-30T16:54:24;10.50;;;6.10;;
48207;SDS011;33997;53.278;9.708;2022-09-30T16:56:49;10.40;;;7.40;;
48207;SDS011;33997;53.278;9.708;2022-09-30T16:59:15;24.08;;;14.80;;
48207;SDS011;33997;53.278;9.708;2022-09-30T17:01:42;45.47;;;28.95;;
48207;SDS011;33997;53.278;9.708;2022-09-30T17:04:08;26.35;;;18.20;;
48207;SDS011;33997;53.278;9.708;2022-09-30T17:06:33;19.83;;;14.98;;
48207;SDS011;33997;53.278;9.708;2022-09-30T17:09:03;11.63;;;7.45;;
48207;SDS011;33997;53.278;9.708;2022-09-30T17:11:32;9.93;;;6.97;;
48207;SDS011;33997;53.278;9.708;2022-09-30T17:14:00;12.67;;;7.13;;
48207;SDS011;33997;53.278;9.708;2022-09-30T17:16:27;12.02;;;7.22;;
48207;SDS011;33997;53.278;9.708;2022-09-30T17:18:53;8.48;;;6.07;;
48207;SDS011;33997;53.278;9.708;2022-09-30T17:21:20;10.70;;;5.68;;
48207;SDS011;33997;53.278;9.708;2022-09-30T17:23:47;8.82;;;5.80;;
48207;SDS011;33997;53.278;9.708;2022-09-30T17:26:13;9.02;;;5.43;;
48207;SDS011;33997;53.278;9.708;2022-09-30T17:28:39;9.15;;;6.18;;
48207;SDS011;33997;53.278;9.708;2022-09-30T17:31:04;9.50;;;6.30;;
48207;SDS011;33997;53.278;9.708;2022-09-30T17:33:33;12.75;;;8.73;;
48207;SDS011;33997;53.278;9.708;2022-09-30T17:36:03;16.33;;;10.75;;
48207;SDS011;33997;53.278;9.708;2022-09-30T17:38:30;15.93;;;7.55;;
48207;SDS011;33997;53.278;9.708;2022-09-30T17:40:57;12.05;;;7.47;;
48207;SDS011;33997;53.278;9.708;2022-09-30T17:43:42;11.18;;;6.80;;
48207;SDS011;33997;53.278;9.708;2022-09-30T17:46:09;10.85;;;5.63;;
48207;SDS011;33997;53.278;9.708;2022-09-30T17:48:35;8.45;;;5.55;;
48207;SDS011;33997;53.278;9.708;2022-09-30T17:51:02;7.70;;;5.22;;
48207;SDS011;33997;53.278;9.708;2022-09-30T17:53:27;10.75;;;5.10;;
48207;SDS011;33997;53.278;9.708;2022-09-30T17:56:04;8.30;;;4.13;;
48207;SDS011;33997;53.278;9.708;2022-09-30T17:58:36;6.70;;;4.32;;